Time;durP1;ratioP1;P1;durP2;ratioP2;P2;SDS_P1;SDS_P2;PMS_P1;PMS_P2;Temp;Humidity;BMP_temperature;BMP_pressure;BME280_temperature;BME280_humidity;BME280_pressure;Samples;Min_cycle;Max_cycle;Signal;HPM_P1;HPM_P2
2021/11/26 00:01:08;;;;;;;6.60;1.63;;;5.40;99.90;;;;;;6239352;22;20005;-62
2021/11/26 00:03:33;;;;;;;7.18;0.88;;;5.50;99.90;;;;;;6240836;22;20004;-63
2021/11/26 00:05:59;;;;;;;3.22;1.00;;;5.50;99.90;;;;;;6240125;22;20015;-63
2021/11/26 00:08:25;;;;;;;4.10;0.80;;;5.50;99.90;;;;;;6240787;22;20012;-62
2021/11/26 00:10:51;;;;;;;2.80;0.75;;;5.50;99.90;;;;;;6240573;22;20039;-63
2021/11/26 00:13:17;;;;;;;4.78;1.08;;;5.40;99.90;;;;;;6241296;22;20004;-63
2021/11/26 00:15:43;;;;;;;4.25;0.52;;;5.50;99.90;;;;;;6240267;22;20019;-63
2021/11/26 00:18:18;;;;;;;5.32;0.70;;;5.50;99.90;;;;;;6239378;23;20006;-61
2021/11/26 00:20:44;;;;;;;2.40;0.40;;;5.50;99.90;;;;;;6238865;22;20012;-63
2021/11/26 00:23:10;;;;;;;1.58;0.30;;;5.50;99.90;;;;;;6239732;22;20019;-63
2021/11/26 00:25:36;;;;;;;1.33;0.20;;;5.40;99.90;;;;;;6240325;22;20012;-68
2021/11/26 00:28:03;;;;;;;1.65;0.20;;;5.40;99.90;;;;;;6241204;22;20008;-62
2021/11/26 00:30:28;;;;;;;3.42;0.20;;;5.40;99.90;;;;;;6240659;22;20460;-63
2021/11/26 00:32:54;;;;;;;6.00;0.52;;;5.30;99.90;;;;;;6237963;22;20013;-62
2021/11/26 00:35:20;;;;;;;4.78;0.70;;;5.30;99.90;;;;;;6239063;23;20035;-62
2021/11/26 00:37:45;;;;;;;3.83;0.70;;;5.30;99.90;;;;;;6238357;22;20462;-62
2021/11/26 00:40:12;;;;;;;5.95;0.60;;;5.20;99.90;;;;;;6241299;22;20000;-63
2021/11/26 00:42:41;;;;;;;1.55;0.20;;;5.20;99.90;;;;;;6238499;22;20031;-63
2021/11/26 00:45:11;;;;;;;3.60;0.43;;;5.20;99.90;;;;;;6240730;22;20004;-62
2021/11/26 00:47:37;;;;;;;1.90;0.27;;;5.20;99.90;;;;;;6239837;22;20469;-63
2021/11/26 00:50:04;;;;;;;2.40;0.82;;;5.10;99.90;;;;;;6240383;22;20693;-62
2021/11/26 00:52:29;;;;;;;1.75;0.52;;;5.10;99.90;;;;;;6240109;22;20578;-63
2021/11/26 00:54:55;;;;;;;3.95;0.40;;;5.10;99.90;;;;;;6235995;22;20134;-63
2021/11/26 00:57:21;;;;;;;4.82;0.50;;;5.10;99.90;;;;;;6238721;22;20011;-63
2021/11/26 00:59:46;;;;;;;3.15;0.70;;;5.10;99.90;;;;;;6239826;22;20008;-63
2021/11/26 01:02:12;;;;;;;3.70;0.60;;;5.20;99.90;;;;;;6240665;22;20015;-63
2021/11/26 01:04:37;;;;;;;6.78;0.38;;;5.20;99.90;;;;;;6239714;22;20480;-63
2021/11/26 01:07:03;;;;;;;3.92;0.57;;;5.20;99.90;;;;;;6239490;22;20016;-64
2021/11/26 01:09:29;;;;;;;1.13;0.47;;;5.30;99.90;;;;;;6241007;22;20431;-63
2021/11/26 01:11:55;;;;;;;10.85;1.17;;;5.40;99.90;;;;;;6238070;22;20012;-63
2021/11/26 01:14:22;;;;;;;3.55;0.30;;;5.40;99.90;;;;;;6240535;22;20008;-62
2021/11/26 01:16:48;;;;;;;2.50;0.45;;;5.30;99.90;;;;;;6239599;22;20429;-62
2021/11/26 01:19:14;;;;;;;2.53;0.32;;;5.30;99.90;;;;;;6240743;22;20015;-62
2021/11/26 01:21:40;;;;;;;2.03;0.40;;;5.30;99.90;;;;;;6238189;22;20065;-64
2021/11/26 01:24:05;;;;;;;2.20;0.30;;;5.30;99.90;;;;;;6240444;22;20008;-63
2021/11/26 01:26:31;;;;;;;4.10;0.45;;;5.30;99.90;;;;;;6239368;22;20012;-62
2021/11/26 01:28:56;;;;;;;1.20;0.47;;;5.30;99.90;;;;;;6239679;22;20035;-62
2021/11/26 01:31:23;;;;;;;4.65;0.45;;;5.30;99.90;;;;;;6240711;22;20446;-63
2021/11/26 01:33:51;;;;;;;6.45;0.35;;;5.30;99.90;;;;;;6239718;22;20012;-62
2021/11/26 01:36:17;;;;;;;3.80;0.30;;;5.30;99.90;;;;;;6240618;22;20350;-63
2021/11/26 01:38:42;;;;;;;4.40;0.52;;;5.30;99.90;;;;;;6239733;22;20123;-64
2021/11/26 01:41:09;;;;;;;5.22;0.93;;;5.30;99.90;;;;;;6240456;22;20012;-63
2021/11/26 01:43:35;;;;;;;1.95;0.50;;;5.30;99.90;;;;;;6240682;22;20102;-62
2021/11/26 01:46:08;;;;;;;3.45;0.35;;;5.30;99.90;;;;;;6240006;22;20012;-62
2021/11/26 01:48:39;;;;;;;3.53;1.10;;;5.30;99.90;;;;;;6240251;22;20067;-62
2021/11/26 01:51:05;;;;;;;0.35;0.10;;;5.30;99.90;;;;;;6240953;22;20338;-62
2021/11/26 01:53:32;;;;;;;2.92;0.77;;;5.30;99.90;;;;;;6238956;23;20388;-63
2021/11/26 01:55:58;;;;;;;2.15;0.10;;;5.30;99.90;;;;;;6239414;22;20886;-63
2021/11/26 01:58:24;;;;;;;2.50;0.85;;;5.30;99.90;;;;;;6240409;22;20008;-64
2021/11/26 02:00:50;;;;;;;2.38;0.80;;;5.20;99.90;;;;;;6239864;22;20008;-62
2021/11/26 02:03:16;;;;;;;2.78;0.75;;;5.20;99.90;;;;;;6240294;22;20075;-62
2021/11/26 02:05:42;;;;;;;11.43;0.32;;;5.20;99.90;;;;;;6239270;22;20043;-63
2021/11/26 02:08:09;;;;;;;1.35;0.20;;;5.10;99.90;;;;;;6238804;23;20393;-64
2021/11/26 02:10:35;;;;;;;9.48;0.63;;;5.10;99.90;;;;;;6237230;22;20087;-63
2021/11/26 02:13:01;;;;;;;2.38;0.85;;;5.10;99.90;;;;;;6240170;22;20011;-62
2021/11/26 02:15:29;;;;;;;2.40;0.10;;;5.00;99.90;;;;;;6240194;22;20000;-62
2021/11/26 02:17:56;;;;;;;1.17;0.10;;;5.00;99.90;;;;;;6239696;22;20047;-63
2021/11/26 02:20:25;;;;;;;2.63;0.32;;;5.00;99.90;;;;;;6239061;23;20134;-64
2021/11/26 02:22:52;;;;;;;2.10;0.30;;;5.00;99.90;;;;;;6239441;22;20035;-63
2021/11/26 02:25:17;;;;;;;3.97;0.20;;;4.90;99.90;;;;;;6240303;22;20054;-62
2021/11/26 02:27:44;;;;;;;0.77;0.10;;;4.90;99.90;;;;;;6239648;22;20023;-63
2021/11/26 02:30:17;;;;;;;4.07;0.50;;;4.90;99.90;;;;;;6240586;22;20034;-62
2021/11/26 02:32:53;;;;;;;6.30;0.55;;;4.90;99.90;;;;;;6241097;22;20004;-62
2021/11/26 02:35:21;;;;;;;4.00;0.70;;;4.90;99.90;;;;;;6241966;22;20020;-63
2021/11/26 02:37:47;;;;;;;3.67;0.45;;;4.80;99.90;;;;;;6241616;22;20009;-62
2021/11/26 02:40:17;;;;;;;1.92;0.20;;;4.80;99.90;;;;;;6242547;22;20019;-63
2021/11/26 02:42:43;;;;;;;5.13;0.55;;;4.90;99.90;;;;;;6264472;22;20528;-64
2021/11/26 02:45:10;;;;;;;5.13;0.85;;;4.90;99.90;;;;;;6241692;22;20034;-62
2021/11/26 02:47:37;;;;;;;4.00;0.40;;;5.00;99.90;;;;;;6241655;22;20036;-62
2021/11/26 02:50:06;;;;;;;6.13;1.15;;;5.00;99.90;;;;;;6241953;22;20071;-61
2021/11/26 02:52:32;;;;;;;1.85;0.47;;;5.00;99.90;;;;;;6242302;22;20003;-62
2021/11/26 02:54:58;;;;;;;1.05;0.40;;;5.10;99.90;;;;;;6241356;22;20028;-63
2021/11/26 02:57:24;;;;;;;6.43;0.50;;;5.20;99.90;;;;;;6241913;22;20004;-63
2021/11/26 02:59:49;;;;;;;5.53;0.57;;;5.10;99.90;;;;;;6241018;22;20009;-62
2021/11/26 03:02:15;;;;;;;7.30;0.50;;;5.20;99.90;;;;;;6241911;22;20087;-63
2021/11/26 03:04:41;;;;;;;4.65;0.63;;;5.20;99.90;;;;;;6240780;22;20343;-64
2021/11/26 03:07:08;;;;;;;6.00;0.88;;;5.20;99.90;;;;;;6241525;22;20445;-62
2021/11/26 03:09:38;;;;;;;9.40;1.10;;;5.20;99.90;;;;;;6239758;22;20097;-63
2021/11/26 03:12:05;;;;;;;3.47;0.28;;;5.30;99.90;;;;;;6241753;22;20008;-63
2021/11/26 03:14:31;;;;;;;3.85;0.40;;;5.30;99.90;;;;;;6241757;22;20008;-62
2021/11/26 03:16:56;;;;;;;1.90;0.30;;;5.30;99.90;;;;;;6240271;22;21530;-63
2021/11/26 03:19:22;;;;;;;4.85;1.30;;;5.30;99.90;;;;;;6241799;22;20004;-62
2021/11/26 03:21:48;;;;;;;4.70;0.38;;;5.30;99.90;;;;;;6238730;22;20012;-63
2021/11/26 03:24:13;;;;;;;3.30;0.88;;;5.30;99.90;;;;;;6241734;22;20016;-63
2021/11/26 03:26:39;;;;;;;4.40;1.45;;;5.30;99.90;;;;;;6240394;22;20026;-62
2021/11/26 03:29:05;;;;;;;9.40;0.80;;;5.30;99.90;;;;;;6241930;22;20117;-62
2021/11/26 03:31:31;;;;;;;6.15;0.32;;;5.30;99.90;;;;;;6239690;22;20012;-62
2021/11/26 03:33:56;;;;;;;4.75;0.40;;;5.30;99.90;;;;;;6240802;22;20365;-62
2021/11/26 03:36:22;;;;;;;3.88;0.50;;;5.30;99.90;;;;;;6241488;22;20434;-62
2021/11/26 03:38:48;;;;;;;2.47;0.30;;;5.30;99.90;;;;;;6240715;22;20016;-62
2021/11/26 03:41:13;;;;;;;3.13;0.32;;;5.30;99.90;;;;;;6239605;22;20087;-64
2021/11/26 03:43:39;;;;;;;1.88;0.75;;;5.30;99.90;;;;;;6240737;22;20353;-65
2021/11/26 03:46:05;;;;;;;2.80;0.30;;;5.20;99.90;;;;;;6241074;22;20008;-63
2021/11/26 03:48:31;;;;;;;1.92;0.30;;;5.20;99.90;;;;;;6241534;22;20012;-62
2021/11/26 03:50:56;;;;;;;4.50;0.68;;;5.20;99.90;;;;;;6240529;22;20017;-62
2021/11/26 03:53:22;;;;;;;7.35;0.75;;;5.10;99.90;;;;;;6241749;22;20012;-63
2021/11/26 03:55:48;;;;;;;4.40;0.63;;;5.10;99.90;;;;;;6239737;22;20036;-64
2021/11/26 03:58:14;;;;;;;8.43;1.30;;;5.00;99.90;;;;;;6241802;22;20391;-63
2021/11/26 04:00:40;;;;;;;3.58;0.63;;;5.00;99.90;;;;;;6240537;22;20080;-63
2021/11/26 04:03:06;;;;;;;2.63;0.47;;;5.00;99.90;;;;;;6241438;22;20075;-62
2021/11/26 04:05:32;;;;;;;4.07;0.77;;;5.00;99.90;;;;;;6241115;22;20020;-62
2021/11/26 04:07:58;;;;;;;5.60;0.30;;;4.90;99.90;;;;;;6239113;22;20683;-63
2021/11/26 04:10:24;;;;;;;3.20;0.38;;;4.90;99.90;;;;;;6241661;22;20011;-62
2021/11/26 04:12:50;;;;;;;4.57;0.85;;;4.80;99.90;;;;;;6238682;22;20004;-62
2021/11/26 04:15:17;;;;;;;4.57;0.50;;;4.80;99.90;;;;;;6240972;22;20066;-62
2021/11/26 04:17:45;;;;;;;3.17;0.73;;;4.80;99.90;;;;;;6239988;22;20000;-62
2021/11/26 04:20:12;;;;;;;2.00;0.68;;;4.80;99.90;;;;;;6240520;22;19997;-62
2021/11/26 04:22:38;;;;;;;2.33;0.60;;;4.90;99.90;;;;;;6240412;22;20008;-66
2021/11/26 04:25:06;;;;;;;3.05;0.32;;;4.80;99.90;;;;;;6241351;22;20007;-64
2021/11/26 04:27:32;;;;;;;5.97;1.17;;;4.80;99.90;;;;;;6241341;22;20477;-63
2021/11/26 04:29:57;;;;;;;7.35;0.90;;;4.80;99.90;;;;;;6240416;22;20012;-63
2021/11/26 04:32:25;;;;;;;2.88;0.60;;;4.80;99.90;;;;;;6241324;22;20004;-63
2021/11/26 04:34:51;;;;;;;3.40;0.57;;;4.80;99.90;;;;;;6240359;22;20016;-63
2021/11/26 04:37:17;;;;;;;3.17;0.50;;;4.70;99.90;;;;;;6238789;23;20011;-64
2021/11/26 04:39:43;;;;;;;3.70;0.55;;;4.70;99.90;;;;;;6240118;22;20083;-65
2021/11/26 04:42:09;;;;;;;5.80;0.68;;;4.70;99.90;;;;;;6241202;22;20019;-63
2021/11/26 04:44:34;;;;;;;3.13;0.60;;;4.80;99.90;;;;;;6240836;22;20587;-64
2021/11/26 04:47:00;;;;;;;0.95;0.32;;;4.70;99.90;;;;;;6238201;22;20012;-62
2021/11/26 04:49:26;;;;;;;6.07;0.60;;;4.70;99.90;;;;;;6241053;22;20016;-64
2021/11/26 04:51:52;;;;;;;1.73;0.43;;;4.80;99.90;;;;;;6239812;22;20019;-63
2021/11/26 04:54:17;;;;;;;5.15;0.73;;;4.70;99.90;;;;;;6240959;22;20381;-65
2021/11/26 04:56:43;;;;;;;7.25;0.85;;;4.70;99.90;;;;;;6239472;22;20008;-62
2021/11/26 04:59:09;;;;;;;3.92;0.88;;;4.70;99.90;;;;;;6241325;22;20072;-62
2021/11/26 05:01:34;;;;;;;2.10;0.77;;;4.70;99.90;;;;;;6239853;22;20460;-63
2021/11/26 05:04:00;;;;;;;2.45;0.75;;;4.70;99.90;;;;;;6240769;22;20337;-65
2021/11/26 05:06:25;;;;;;;7.53;0.93;;;4.60;99.90;;;;;;6240504;22;20012;-64
2021/11/26 05:08:52;;;;;;;5.32;0.82;;;4.60;99.90;;;;;;6240073;22;20012;-63
2021/11/26 05:11:17;;;;;;;4.10;1.15;;;4.60;99.90;;;;;;6240947;22;20008;-62
2021/11/26 05:13:44;;;;;;;3.83;0.70;;;4.60;99.90;;;;;;6240019;22;20019;-63
2021/11/26 05:16:13;;;;;;;3.95;0.70;;;4.60;99.90;;;;;;6240830;22;20090;-63
2021/11/26 05:18:43;;;;;;;5.55;1.17;;;4.60;99.90;;;;;;6240170;22;20081;-61
2021/11/26 05:21:09;;;;;;;5.97;0.80;;;4.60;99.90;;;;;;6241139;22;20013;-62
2021/11/26 05:23:36;;;;;;;5.15;1.10;;;4.60;99.90;;;;;;6240535;22;20042;-66
2021/11/26 05:26:02;;;;;;;3.22;0.77;;;4.60;99.90;;;;;;6240006;22;20015;-62
2021/11/26 05:28:27;;;;;;;3.15;0.90;;;4.60;99.90;;;;;;6240766;22;20004;-64
2021/11/26 05:30:53;;;;;;;5.85;0.60;;;4.60;99.90;;;;;;6238101;22;20349;-62
2021/11/26 05:33:19;;;;;;;7.20;1.50;;;4.60;99.90;;;;;;6239306;23;20054;-62
2021/11/26 05:35:45;;;;;;;7.28;1.00;;;4.60;99.90;;;;;;6238695;22;20016;-62
2021/11/26 05:38:10;;;;;;;8.88;1.30;;;4.50;99.90;;;;;;6240739;22;20082;-62
2021/11/26 05:40:36;;;;;;;5.82;1.00;;;4.60;99.90;;;;;;6240456;22;20018;-63
2021/11/26 05:43:02;;;;;;;6.10;2.05;;;4.60;99.90;;;;;;6239827;22;20012;-64
2021/11/26 05:45:28;;;;;;;1.52;0.70;;;4.60;99.90;;;;;;6240444;22;20054;-62
2021/11/26 05:47:54;;;;;;;8.98;0.90;;;4.60;99.90;;;;;;6239861;22;20036;-62
2021/11/26 05:50:21;;;;;;;8.15;0.77;;;4.70;99.90;;;;;;6240937;22;20004;-62
2021/11/26 05:52:47;;;;;;;1.35;0.60;;;4.60;99.90;;;;;;6239848;22;20303;-63
2021/11/26 05:55:16;;;;;;;4.15;0.98;;;4.60;99.90;;;;;;6240887;22;20004;-64
2021/11/26 05:57:42;;;;;;;6.70;0.80;;;4.60;99.90;;;;;;6239442;22;20004;-62
2021/11/26 06:00:10;;;;;;;6.05;0.77;;;4.60;99.90;;;;;;6239359;23;20008;-62
2021/11/26 06:02:37;;;;;;;8.15;0.77;;;4.60;99.90;;;;;;6240109;22;20503;-63
2021/11/26 06:05:03;;;;;;;6.68;1.10;;;4.60;99.90;;;;;;6240571;22;20004;-63
2021/11/26 06:07:29;;;;;;;10.60;1.20;;;4.60;99.90;;;;;;6242545;22;20442;-63
2021/11/26 06:09:55;;;;;;;10.30;1.10;;;4.60;99.90;;;;;;6240286;22;20110;-63
2021/11/26 06:12:20;;;;;;;4.85;0.82;;;4.60;99.90;;;;;;6242646;22;20373;-64
2021/11/26 06:14:46;;;;;;;6.35;1.75;;;4.50;99.90;;;;;;6243011;22;20016;-64
2021/11/26 06:17:11;;;;;;;7.93;1.17;;;4.60;99.90;;;;;;6240812;23;20008;-62
2021/11/26 06:19:37;;;;;;;7.68;0.82;;;4.60;99.90;;;;;;6242526;22;20148;-63
2021/11/26 06:22:03;;;;;;;8.23;1.58;;;4.60;99.90;;;;;;6243045;22;20031;-64
2021/11/26 06:24:29;;;;;;;8.80;0.80;;;4.50;99.90;;;;;;6244815;23;20011;-62
2021/11/26 06:26:54;;;;;;;8.15;1.20;;;4.50;99.90;;;;;;6241725;23;20020;-64
2021/11/26 06:29:20;;;;;;;9.35;1.75;;;4.60;99.90;;;;;;6217195;23;20095;-62
2021/11/26 06:31:46;;;;;;;13.88;1.83;;;4.50;99.90;;;;;;6241640;22;20033;-62
2021/11/26 06:34:12;;;;;;;15.05;1.92;;;4.50;99.90;;;;;;6243273;23;20004;-63
2021/11/26 06:36:37;;;;;;;5.72;0.80;;;4.40;99.90;;;;;;6241935;23;20016;-63
2021/11/26 06:39:03;;;;;;;4.43;1.17;;;4.50;99.90;;;;;;6240474;23;20062;-63
2021/11/26 06:41:29;;;;;;;5.28;0.93;;;4.50;99.90;;;;;;6242057;22;20019;-64
2021/11/26 06:43:54;;;;;;;6.80;1.10;;;4.50;99.90;;;;;;6241522;22;20012;-65
2021/11/26 06:46:20;;;;;;;14.40;1.88;;;4.40;99.90;;;;;;6242322;22;20012;-62
2021/11/26 06:48:45;;;;;;;12.60;1.10;;;4.50;99.90;;;;;;6241707;22;20350;-63
2021/11/26 06:51:11;;;;;;;14.45;1.23;;;4.50;99.90;;;;;;6242717;22;20079;-61
2021/11/26 06:53:37;;;;;;;9.60;1.15;;;4.40;99.90;;;;;;6242061;22;20004;-62
2021/11/26 06:56:03;;;;;;;8.27;0.98;;;4.50;99.90;;;;;;6241920;22;20008;-62
2021/11/26 06:58:29;;;;;;;6.32;1.17;;;4.50;99.90;;;;;;6243113;22;20039;-63
2021/11/26 07:00:54;;;;;;;4.43;0.82;;;4.40;99.90;;;;;;6241875;22;20023;-63
2021/11/26 07:03:20;;;;;;;6.07;1.13;;;4.50;99.90;;;;;;6240465;23;20008;-62
2021/11/26 07:05:45;;;;;;;15.38;2.53;;;4.50;99.90;;;;;;6241108;22;20374;-62
2021/11/26 07:08:11;;;;;;;4.50;0.75;;;4.50;99.90;;;;;;6242263;22;20119;-63
2021/11/26 07:10:37;;;;;;;7.95;1.38;;;4.50;99.90;;;;;;6241845;22;20006;-62
2021/11/26 07:13:02;;;;;;;8.18;0.90;;;4.50;99.90;;;;;;6241616;22;20089;-62
2021/11/26 07:15:29;;;;;;;14.85;2.40;;;4.50;99.90;;;;;;6242359;22;19996;-62
2021/11/26 07:17:54;;;;;;;7.32;0.85;;;4.50;99.90;;;;;;6240683;22;20079;-62
2021/11/26 07:20:21;;;;;;;2.25;0.55;;;4.60;99.90;;;;;;6242227;22;20039;-63
2021/11/26 07:22:47;;;;;;;8.57;1.75;;;4.50;99.90;;;;;;6240592;22;20008;-63
2021/11/26 07:25:13;;;;;;;8.60;0.95;;;4.60;99.90;;;;;;6241788;22;20326;-63
2021/11/26 07:27:39;;;;;;;5.55;1.25;;;4.60;99.90;;;;;;6241032;22;20024;-62
2021/11/26 07:30:06;;;;;;;6.03;0.88;;;4.60;99.90;;;;;;6242014;22;20507;-63
2021/11/26 07:32:32;;;;;;;8.05;1.33;;;4.50;99.90;;;;;;6242368;22;20454;-63
2021/11/26 07:34:58;;;;;;;12.15;1.00;;;4.60;99.90;;;;;;6241391;22;20015;-62
2021/11/26 07:37:25;;;;;;;6.85;1.35;;;4.50;99.90;;;;;;6242114;22;20011;-62
2021/11/26 07:39:51;;;;;;;8.02;0.73;;;4.60;99.90;;;;;;6240857;22;20004;-64
2021/11/26 07:42:17;;;;;;;10.30;2.03;;;4.60;99.90;;;;;;6242093;22;20047;-63
2021/11/26 07:44:43;;;;;;;11.48;2.53;;;4.60;99.90;;;;;;6241804;22;20016;-62
2021/11/26 07:47:11;;;;;;;7.45;0.82;;;4.60;99.90;;;;;;6241942;22;20012;-64
2021/11/26 07:49:38;;;;;;;9.85;0.77;;;4.60;99.90;;;;;;6240887;22;20094;-62
2021/11/26 07:52:04;;;;;;;8.20;1.17;;;4.60;99.90;;;;;;6241465;22;20015;-62
2021/11/26 07:54:32;;;;;;;6.13;1.02;;;4.60;99.90;;;;;;6241927;22;20011;-63
2021/11/26 07:56:57;;;;;;;7.05;1.30;;;4.70;99.90;;;;;;6240690;22;20008;-62
2021/11/26 07:59:25;;;;;;;8.55;0.80;;;4.70;99.90;;;;;;6236814;22;20054;-62
2021/11/26 08:01:51;;;;;;;7.35;0.50;;;4.80;99.90;;;;;;6239649;22;20012;-63
2021/11/26 08:04:17;;;;;;;7.22;0.75;;;4.80;99.90;;;;;;6240620;22;20005;-62
2021/11/26 08:06:45;;;;;;;8.40;1.27;;;4.80;99.90;;;;;;6239268;22;20013;-62
2021/11/26 08:09:15;;;;;;;5.65;0.75;;;4.90;99.90;;;;;;6240430;22;20015;-62
2021/11/26 08:11:42;;;;;;;8.07;0.80;;;4.80;99.90;;;;;;6237157;22;20019;-62
2021/11/26 08:14:08;;;;;;;13.07;1.10;;;4.80;99.90;;;;;;6239893;22;20005;-61
2021/11/26 08:16:35;;;;;;;3.28;0.70;;;4.80;99.90;;;;;;6240164;22;20341;-62
2021/11/26 08:19:00;;;;;;;5.63;1.45;;;4.90;99.90;;;;;;6239360;22;20012;-63
2021/11/26 08:21:26;;;;;;;6.65;1.63;;;4.90;99.90;;;;;;6238540;22;20122;-62
2021/11/26 08:23:52;;;;;;;6.10;0.90;;;4.90;99.90;;;;;;6239035;22;20783;-63
2021/11/26 08:26:18;;;;;;;1.92;0.73;;;4.90;99.90;;;;;;6239992;22;20008;-63
2021/11/26 08:28:43;;;;;;;12.45;1.20;;;4.90;99.90;;;;;;6239361;22;20422;-63
2021/11/26 08:31:09;;;;;;;4.55;0.70;;;5.00;99.90;;;;;;6240136;22;20015;-62
2021/11/26 08:33:35;;;;;;;6.05;1.95;;;4.90;99.90;;;;;;6240187;22;20008;-63
2021/11/26 08:36:00;;;;;;;9.95;1.90;;;5.00;99.90;;;;;;6238071;23;20027;-64
2021/11/26 08:38:26;;;;;;;8.30;1.38;;;5.00;99.90;;;;;;6213177;23;20016;-62
2021/11/26 08:40:52;;;;;;;6.55;1.42;;;5.10;99.90;;;;;;6238815;23;20469;-63
2021/11/26 08:43:18;;;;;;;5.43;1.02;;;5.00;99.90;;;;;;6213142;23;20024;-62
2021/11/26 08:45:43;;;;;;;7.85;2.17;;;5.00;99.90;;;;;;6238257;23;20086;-62
2021/11/26 08:48:10;;;;;;;7.75;1.38;;;5.00;99.90;;;;;;6240400;23;20425;-62
2021/11/26 08:50:36;;;;;;;5.40;1.27;;;5.00;99.90;;;;;;6211956;23;20509;-63
2021/11/26 08:53:05;;;;;;;13.82;2.75;;;5.10;99.90;;;;;;6239304;22;20024;-62
2021/11/26 08:55:31;;;;;;;13.93;2.33;;;5.20;99.90;;;;;;6239464;23;20007;-65
2021/11/26 08:57:58;;;;;;;9.20;1.85;;;5.20;99.90;;;;;;6239005;23;20049;-62
2021/11/26 09:00:31;;;;;;;7.25;1.40;;;5.30;99.90;;;;;;6235757;23;20019;-62
2021/11/26 09:03:00;;;;;;;9.30;1.80;;;5.40;99.90;;;;;;6236653;22;20008;-62
2021/11/26 09:05:26;;;;;;;7.70;1.48;;;5.50;99.90;;;;;;6236153;23;20012;-63
2021/11/26 09:07:59;;;;;;;11.82;2.38;;;5.50;99.90;;;;;;6236532;23;20012;-63
2021/11/26 09:10:24;;;;;;;12.20;2.20;;;5.50;99.90;;;;;;6237824;23;20007;-62
2021/11/26 09:12:50;;;;;;;6.97;1.90;;;5.50;99.90;;;;;;6235902;22;20016;-64
2021/11/26 09:15:16;;;;;;;9.45;2.55;;;5.50;99.90;;;;;;6236353;23;20318;-63
2021/11/26 09:17:42;;;;;;;9.68;1.95;;;5.50;99.90;;;;;;6237427;23;20015;-63
2021/11/26 09:20:08;;;;;;;13.27;3.78;;;5.50;99.90;;;;;;6238996;23;20012;-62
2021/11/26 09:22:34;;;;;;;12.50;2.40;;;5.50;99.90;;;;;;6239301;22;20024;-63
2021/11/26 09:25:00;;;;;;;20.25;3.40;;;5.50;99.90;;;;;;6211111;23;20012;-63
2021/11/26 09:27:26;;;;;;;13.48;2.88;;;5.50;99.90;;;;;;6240009;23;20525;-62
2021/11/26 09:29:52;;;;;;;10.80;3.05;;;5.50;99.90;;;;;;6239686;23;20016;-62
2021/11/26 09:32:17;;;;;;;23.45;4.78;;;5.40;99.90;;;;;;6240436;22;20032;-62
2021/11/26 09:34:43;;;;;;;12.93;3.95;;;5.40;99.90;;;;;;6239431;23;20035;-62
2021/11/26 09:37:09;;;;;;;13.55;3.35;;;5.40;99.90;;;;;;6240188;23;20077;-62
2021/11/26 09:39:34;;;;;;;14.68;3.38;;;5.40;99.90;;;;;;6240818;23;20008;-62
2021/11/26 09:42:00;;;;;;;19.48;4.30;;;5.40;99.90;;;;;;6212692;23;20012;-61
2021/11/26 09:44:31;;;;;;;18.60;4.07;;;5.50;99.90;;;;;;6240693;23;20012;-62
2021/11/26 09:46:57;;;;;;;;;;;5.50;99.90;;;;;;6239553;23;20342;-62
2021/11/26 09:49:22;;;;;;;16.70;3.13;;;5.50;99.90;;;;;;6240821;23;19907;-62
2021/11/26 09:51:49;;;;;;;13.15;3.05;;;5.50;99.90;;;;;;6239287;22;20019;-62
2021/11/26 09:54:15;;;;;;;25.85;3.42;;;5.50;99.90;;;;;;6240534;23;20031;-62
2021/11/26 09:56:41;;;;;;;14.70;2.90;;;5.50;99.90;;;;;;6239432;23;20016;-63
2021/11/26 09:59:06;;;;;;;11.38;2.58;;;5.50;99.90;;;;;;6213856;23;20008;-62
2021/11/26 10:01:32;;;;;;;16.63;2.90;;;5.50;99.90;;;;;;6240066;22;20350;-61
2021/11/26 10:03:58;;;;;;;12.38;2.60;;;5.50;99.90;;;;;;6239486;23;20009;-62
2021/11/26 10:06:25;;;;;;;12.02;3.05;;;5.50;99.90;;;;;;6239471;23;20004;-62
2021/11/26 10:09:00;;;;;;;8.18;1.98;;;5.60;99.90;;;;;;6239357;23;20024;-62
2021/11/26 10:11:29;;;;;;;9.52;2.83;;;5.60;99.90;;;;;;6240237;22;20016;-62
2021/11/26 10:13:55;;;;;;;11.00;2.03;;;5.60;99.90;;;;;;6238939;23;20023;-62
2021/11/26 10:16:22;;;;;;;6.90;2.53;;;5.70;99.90;;;;;;6239745;23;20016;-62
2021/11/26 10:18:50;;;;;;;9.95;2.60;;;5.70;99.90;;;;;;6212659;23;20062;-62
2021/11/26 10:21:17;;;;;;;6.88;1.17;;;5.80;99.90;;;;;;6234540;22;20024;-61
2021/11/26 10:23:49;;;;;;;10.68;2.22;;;5.90;99.90;;;;;;6239295;23;20020;-63
2021/11/26 10:26:26;;;;;;;9.90;2.15;;;6.00;99.90;;;;;;6239778;23;20008;-62
2021/11/26 10:29:00;;;;;;;8.07;1.95;;;6.00;99.90;;;;;;6239380;23;20016;-62
2021/11/26 10:31:30;;;;;;;7.78;2.05;;;6.00;99.90;;;;;;6240284;22;20016;-62
2021/11/26 10:33:58;;;;;;;6.82;2.22;;;6.10;99.90;;;;;;6238661;23;20379;-62
2021/11/26 10:36:25;;;;;;;9.73;1.38;;;6.20;99.90;;;;;;6239626;23;20447;-63
2021/11/26 10:38:53;;;;;;;6.32;1.85;;;6.20;99.90;;;;;;6238903;23;20036;-62
2021/11/26 10:41:26;;;;;;;12.80;2.95;;;6.20;99.90;;;;;;6239868;22;20019;-64
2021/11/26 10:44:12;;;;;;;6.10;2.65;;;6.20;99.90;;;;;;6239284;23;20008;-62
2021/11/26 10:46:49;;;;;;;5.65;1.20;;;6.20;99.90;;;;;;6238922;23;20461;-61
2021/11/26 11:00:00;;;;;;;11.25;1.25;;;6.30;99.90;;;;;;6240730;23;20036;-63
2021/11/26 11:02:44;;;;;;;14.73;2.25;;;6.30;99.90;;;;;;6242198;22;20012;-62
2021/11/26 11:05:30;;;;;;;6.47;1.67;;;6.30;99.90;;;;;;6241022;23;20004;-66
2021/11/26 11:08:02;;;;;;;4.50;1.45;;;6.40;99.90;;;;;;6239980;23;20028;-62
2021/11/26 11:10:34;;;;;;;5.72;1.30;;;6.40;99.90;;;;;;6241618;23;20001;-62
2021/11/26 11:13:09;;;;;;;10.57;1.30;;;6.30;99.90;;;;;;6240032;22;20368;-62
2021/11/26 11:15:35;;;;;;;5.72;1.55;;;6.20;99.90;;;;;;6241076;23;20091;-63
2021/11/26 11:18:01;;;;;;;15.02;2.85;;;6.20;99.90;;;;;;6236685;23;20032;-63
2021/11/26 11:20:27;;;;;;;4.10;1.00;;;6.20;99.90;;;;;;6241145;23;20008;-62
2021/11/26 11:22:53;;;;;;;6.68;1.52;;;6.20;99.90;;;;;;6239785;22;20346;-61
2021/11/26 11:25:26;;;;;;;5.00;1.10;;;6.20;99.90;;;;;;6241201;23;20425;-62
2021/11/26 11:27:54;;;;;;;7.03;1.20;;;6.00;99.90;;;;;;6240251;23;20090;-62
2021/11/26 11:30:20;;;;;;;4.28;1.40;;;6.00;99.90;;;;;;6241756;23;20011;-62
2021/11/26 11:32:45;;;;;;;7.53;1.30;;;5.90;99.90;;;;;;6240054;22;20012;-64
2021/11/26 11:35:12;;;;;;;6.03;1.60;;;5.90;99.90;;;;;;6241437;23;20468;-62
2021/11/26 11:37:38;;;;;;;6.03;1.33;;;5.80;99.90;;;;;;6241080;23;20008;-64
2021/11/26 11:40:09;;;;;;;9.23;1.40;;;5.90;99.90;;;;;;6240690;23;20012;-63
2021/11/26 11:42:39;;;;;;;10.00;2.05;;;5.90;99.90;;;;;;6214613;23;20065;-62
2021/11/26 11:45:10;;;;;;;8.38;1.02;;;5.80;99.90;;;;;;6240769;22;20054;-62
2021/11/26 11:47:43;;;;;;;4.20;1.20;;;5.90;99.90;;;;;;6241799;22;20016;-62
2021/11/26 11:50:21;;;;;;;13.52;1.48;;;5.80;99.90;;;;;;6238510;23;20012;-62
2021/11/26 11:52:53;;;;;;;7.78;1.35;;;5.70;99.90;;;;;;6240203;22;20019;-63
2021/11/26 11:55:25;;;;;;;12.00;2.00;;;5.70;99.90;;;;;;6239876;23;20087;-62
2021/11/26 11:57:56;;;;;;;7.15;1.45;;;5.70;99.90;;;;;;6241040;22;20012;-62
2021/11/26 12:00:26;;;;;;;7.22;1.52;;;5.70;99.90;;;;;;6241693;22;20004;-63
2021/11/26 12:03:04;;;;;;;7.35;2.08;;;5.60;99.90;;;;;;6240762;22;20034;-62
2021/11/26 12:05:30;;;;;;;9.65;3.42;;;5.60;99.90;;;;;;6241076;22;20008;-62
2021/11/26 12:08:14;;;;;;;5.97;2.10;;;5.60;99.90;;;;;;6240014;22;20458;-61
2021/11/26 12:10:52;;;;;;;11.88;2.78;;;5.50;99.90;;;;;;6239118;22;20031;-62
2021/11/26 12:13:27;;;;;;;7.13;1.92;;;5.60;99.90;;;;;;6241101;22;20485;-62
2021/11/26 12:16:24;;;;;;;5.50;1.60;;;5.50;99.90;;;;;;6240204;22;20008;-62
2021/11/26 12:18:52;;;;;;;5.03;1.23;;;5.60;99.90;;;;;;6212074;22;20053;-63
2021/11/26 12:21:21;;;;;;;5.90;2.03;;;5.50;99.90;;;;;;6239925;22;20062;-62
2021/11/26 12:24:13;;;;;;;6.00;1.63;;;5.50;99.90;;;;;;6239221;22;20420;-63
2021/11/26 12:26:44;;;;;;;4.95;2.33;;;5.50;99.90;;;;;;6239151;22;20523;-62
2021/11/26 12:29:11;;;;;;;6.85;2.03;;;5.50;99.90;;;;;;6240199;22;20063;-62
2021/11/26 12:31:39;;;;;;;8.80;2.53;;;5.30;99.90;;;;;;6237928;22;20012;-61
2021/11/26 12:34:11;;;;;;;8.93;2.03;;;5.20;99.90;;;;;;6236680;22;20454;-63
2021/11/26 12:36:44;;;;;;;10.60;2.00;;;5.10;99.90;;;;;;6237866;22;20020;-63
2021/11/26 12:39:22;;;;;;;7.95;2.00;;;5.10;99.90;;;;;;6235488;23;20098;-63
2021/11/26 12:41:50;;;;;;;12.35;1.48;;;5.00;99.90;;;;;;6236247;22;20051;-63
2021/11/26 12:44:21;;;;;;;4.82;1.83;;;5.00;99.90;;;;;;6237622;22;20016;-62
2021/11/26 12:46:53;;;;;;;6.38;2.03;;;4.90;99.90;;;;;;6235903;22;20044;-61
2021/11/26 12:51:54;;;;;;;5.00;1.73;;;4.90;99.90;;;;;;6237456;22;20085;-63
2021/11/26 12:54:23;;;;;;;4.55;2.03;;;4.90;99.90;;;;;;6237092;22;20581;-64
2021/11/26 12:56:49;;;;;;;5.30;2.75;;;4.90;99.90;;;;;;6236067;22;20023;-63
2021/11/26 12:59:44;;;;;;;3.10;1.50;;;4.80;99.90;;;;;;6237146;22;20008;-63
2021/11/26 13:02:18;;;;;;;4.45;1.58;;;4.90;99.90;;;;;;6236804;22;20008;-62
2021/11/26 13:04:53;;;;;;;4.05;1.45;;;4.80;99.90;;;;;;6236191;22;20099;-64
2021/11/26 13:07:23;;;;;;;6.30;1.52;;;4.80;99.90;;;;;;6237316;22;20019;-63
2021/11/26 13:09:52;;;;;;;3.65;1.25;;;4.80;99.90;;;;;;6236523;22;20095;-63